Terminal Aerodrome Forecast
Issued by NWS Jackson, KY

Home | Current Version | Previous Version | Text Only | Print | Product List | Glossary On
Versions: 1 2 3 4 5 6 7 8 9 10 11 12 13 14 15 16 17 18 19
789
FTUS43 KJKL 182320
TAFJKL
TAF
KJKL 182320Z 1900/1924 21015G30KT P6SM VCTS OVC025CB
     FM190100 27015G30KT 5SM -SHRA OVC010
     FM191000 29009KT P6SM VCSH OVC020
     FM191200 29009KT P6SM OVC020
     FM192000 28009KT P6SM SCT035=

USA.gov is the U.S. government's official web portal to all federal, state and local government web resources and services.